Accueil
METAR-TAF:

METAR-TAF

Aéroports :

Dübendorf, Suisse

latitude: 47-23-55N, longitude: 8-38-53E, altitude: 448 m

Observation

Le bulletin a été fait il y a 40 minutes, à 01:50 UTC
Vent 2 kt de direction variable
Température 8°C
Humidité 71%
Pression 1007 hPa
Visibilité 10 km ou plus
Quelques nuages à une hauteur de 14000 ft
Nuages épars à une hauteur de 21000 ft

METAR: LSMD 010150Z AUTO VRB02KT 9999NDV FEW140 SCT210 08/03 Q1007 RMK

Heure: 04:30 (02:30 UTC)


TAF: absent

Observations et prévisions météorologiques de plus de 4000 aéroports (messages METAR et TAF).

Les stations disponibles sont représentées par des disques jaunes et rouges sur la carte.

Passer la souris dessus pour voir le nom de la station.

Cliquer dessus pour voir les observations et prévisions météorologiques.

Pour changer de carte: cliquez sur les boutons verts avec une croix noire pour zoomer, sur le bouton vert avec un tiret pour effectuer un zoom arrière, ou sur les flèches vertes pour les cartes adjacentes.


METAR-TAF: